Time;durP1;ratioP1;P1;durP2;ratioP2;P2;SDS_P1;SDS_P2;PMS_P1;PMS_P2;Temp;Humidity;BMP_temperature;BMP_pressure;BME280_temperature;BME280_humidity;BME280_pressure;Samples;Min_cycle;Max_cycle;Signal;HPM_P1;HPM_P2
2021/06/18 00:01:56;;;;;;;12.18;4.28;;;24.70;99.90;;;;;;5004402;28;20479;-62
2021/06/18 00:04:22;;;;;;;9.63;4.32;;;24.60;99.90;;;;;;5000404;28;20170;-60
2021/06/18 00:06:48;;;;;;;12.98;4.72;;;24.50;99.90;;;;;;5006681;28;20041;-60
2021/06/18 00:09:13;;;;;;;11.57;4.50;;;24.40;99.90;;;;;;4998785;28;20033;-61
2021/06/18 00:11:39;;;;;;;13.18;4.80;;;24.40;99.90;;;;;;5000869;28;20400;-60
2021/06/18 00:14:05;;;;;;;16.17;5.38;;;24.40;99.90;;;;;;5005240;28;20025;-62
2021/06/18 00:16:32;;;;;;;14.93;4.93;;;24.40;99.90;;;;;;5000368;28;20037;-59
2021/06/18 00:18:58;;;;;;;11.48;5.05;;;24.50;99.90;;;;;;5002538;28;20029;-60
2021/06/18 00:21:23;;;;;;;16.20;5.80;;;24.50;99.90;;;;;;5003636;28;20014;-62
2021/06/18 00:23:49;;;;;;;18.98;5.07;;;24.60;99.90;;;;;;5004008;28;20041;-61
2021/06/18 00:26:15;;;;;;;10.48;5.03;;;24.60;99.90;;;;;;5008092;28;20030;-62
2021/06/18 00:28:42;;;;;;;11.18;5.32;;;24.70;99.90;;;;;;5006585;28;20384;-60
2021/06/18 00:31:08;;;;;;;11.38;4.90;;;24.70;99.90;;;;;;5002833;28;20025;-61
2021/06/18 00:33:34;;;;;;;8.20;4.63;;;24.70;99.90;;;;;;5003036;28;20104;-61
2021/06/18 00:35:59;;;;;;;18.52;5.78;;;24.70;99.90;;;;;;5006286;28;20057;-60
2021/06/18 00:38:25;;;;;;;9.10;4.57;;;24.60;99.90;;;;;;5007679;28;20037;-59
2021/06/18 00:40:51;;;;;;;10.73;5.45;;;24.70;99.90;;;;;;5005846;28;20450;-59
2021/06/18 00:43:16;;;;;;;14.77;5.45;;;24.60;99.90;;;;;;4998513;28;20033;-60
2021/06/18 00:45:42;;;;;;;10.73;5.90;;;24.60;99.90;;;;;;4999055;28;20559;-60
2021/06/18 00:48:08;;;;;;;14.45;5.55;;;24.60;99.90;;;;;;5001470;28;20020;-60
2021/06/18 00:50:34;;;;;;;13.70;6.30;;;24.50;99.90;;;;;;5007796;28;20399;-61
2021/06/18 00:52:59;;;;;;;13.23;5.82;;;24.50;99.90;;;;;;5006361;28;20038;-61
2021/06/18 00:55:26;;;;;;;11.05;5.70;;;24.50;99.90;;;;;;5006334;28;20029;-59
2021/06/18 00:57:52;;;;;;;15.50;5.78;;;24.50;99.90;;;;;;5004439;28;20033;-61
2021/06/18 01:00:19;;;;;;;10.80;5.72;;;24.50;99.90;;;;;;5003813;28;20034;-62
2021/06/18 01:02:44;;;;;;;12.13;5.95;;;24.60;99.90;;;;;;5005314;28;20049;-58
2021/06/18 01:05:13;;;;;;;16.70;6.32;;;24.60;99.90;;;;;;5006096;28;20133;-59
2021/06/18 01:07:57;;;;;;;12.73;5.85;;;24.60;99.90;;;;;;4987575;28;20034;-59
2021/06/18 01:10:59;;;;;;;7.07;5.17;;;24.70;99.90;;;;;;5009751;28;20030;-61
2021/06/18 01:13:35;;;;;;;10.40;5.57;;;24.70;99.90;;;;;;5006517;28;20269;-59
2021/06/18 01:16:21;;;;;;;13.15;6.55;;;24.60;99.90;;;;;;5007386;28;20045;-59
2021/06/18 01:19:07;;;;;;;10.95;6.70;;;24.50;99.90;;;;;;5000754;28;20022;-59
2021/06/18 01:21:37;;;;;;;14.60;6.30;;;24.50;99.90;;;;;;4982274;28;20115;-59
2021/06/18 01:24:27;;;;;;;11.90;5.38;;;24.50;99.90;;;;;;5009539;28;20566;-60
2021/06/18 01:27:34;;;;;;;13.25;6.03;;;24.30;99.90;;;;;;5007681;28;20480;-61
2021/06/18 01:30:03;;;;;;;12.73;6.55;;;24.20;99.90;;;;;;4968807;28;20691;-59
2021/06/18 01:32:38;;;;;;;16.67;6.35;;;24.20;99.90;;;;;;5007592;28;20500;-59
2021/06/18 01:35:06;;;;;;;9.35;5.53;;;24.10;99.90;;;;;;5006346;28;20037;-60
2021/06/18 01:37:33;;;;;;;12.10;6.10;;;23.90;99.90;;;;;;5007627;28;20097;-60
2021/06/18 01:40:04;;;;;;;9.10;6.00;;;23.80;99.90;;;;;;4992522;28;20041;-59
2021/06/18 01:42:34;;;;;;;18.80;6.43;;;23.70;99.90;;;;;;5010251;28;20018;-59
2021/06/18 01:45:00;;;;;;;12.57;6.65;;;23.60;99.90;;;;;;5007937;28;20105;-61
2021/06/18 01:47:26;;;;;;;17.10;6.90;;;23.60;99.90;;;;;;5006214;28;20026;-60
2021/06/18 01:49:53;;;;;;;11.43;6.80;;;23.50;99.90;;;;;;5006537;28;20362;-60
2021/06/18 01:52:21;;;;;;;14.65;6.85;;;23.50;99.90;;;;;;5006057;28;20030;-62
2021/06/18 01:54:48;;;;;;;15.05;6.65;;;23.40;99.90;;;;;;5010564;28;20103;-61
2021/06/18 01:57:15;;;;;;;20.33;7.43;;;23.40;99.90;;;;;;5008695;28;20029;-61
2021/06/18 01:59:43;;;;;;;14.60;7.18;;;23.30;99.90;;;;;;5008886;28;20111;-61
2021/06/18 02:02:10;;;;;;;16.13;6.95;;;23.30;99.90;;;;;;5003832;28;20030;-62
2021/06/18 02:04:39;;;;;;;17.48;7.97;;;23.20;99.90;;;;;;5009224;28;20030;-62
2021/06/18 02:07:06;;;;;;;13.13;6.95;;;23.10;99.90;;;;;;5002709;28;20071;-62
2021/06/18 02:09:34;;;;;;;11.68;7.13;;;23.10;99.90;;;;;;5011031;28;20380;-62
2021/06/18 02:12:00;;;;;;;13.48;6.93;;;23.00;99.90;;;;;;5007585;28;20403;-62
2021/06/18 02:14:29;;;;;;;14.70;8.07;;;22.90;99.90;;;;;;5010577;28;20041;-62
2021/06/18 02:17:01;;;;;;;21.45;7.53;;;22.90;99.90;;;;;;5007608;28;20060;-62
2021/06/18 02:19:28;;;;;;;14.90;7.85;;;22.80;99.90;;;;;;5009684;28;20127;-62
2021/06/18 02:21:56;;;;;;;10.65;7.35;;;22.70;99.90;;;;;;5007009;28;20034;-62
2021/06/18 02:24:25;;;;;;;12.60;7.40;;;22.70;99.90;;;;;;5005922;28;20096;-62
2021/06/18 02:26:52;;;;;;;21.83;8.70;;;22.60;99.90;;;;;;5001874;28;20386;-62
2021/06/18 02:29:18;;;;;;;14.05;7.93;;;22.50;99.90;;;;;;5008189;28;20037;-62
2021/06/18 02:31:45;;;;;;;16.17;8.43;;;22.40;99.90;;;;;;5009099;28;20033;-61
2021/06/18 02:34:11;;;;;;;12.55;7.93;;;22.30;99.90;;;;;;4994281;28;20049;-59
2021/06/18 02:36:38;;;;;;;13.52;7.65;;;22.30;99.90;;;;;;5009366;28;20050;-62
2021/06/18 02:39:07;;;;;;;11.25;7.80;;;22.30;99.90;;;;;;5009565;28;20018;-62
2021/06/18 02:41:33;;;;;;;11.65;8.07;;;22.20;99.90;;;;;;5003990;28;20022;-60
2021/06/18 02:44:02;;;;;;;16.98;8.95;;;22.20;99.90;;;;;;5004626;28;20030;-60
2021/06/18 02:46:42;;;;;;;13.15;7.95;;;22.20;99.90;;;;;;5004063;28;20023;-61
2021/06/18 02:49:13;;;;;;;16.58;8.15;;;22.10;99.90;;;;;;5003690;28;20022;-62
2021/06/18 02:51:47;;;;;;;19.38;10.32;;;22.20;99.90;;;;;;5005097;28;20034;-62
2021/06/18 02:54:25;;;;;;;18.95;9.38;;;22.10;99.90;;;;;;5007205;28;20057;-62
2021/06/18 02:56:57;;;;;;;14.90;8.45;;;22.00;99.90;;;;;;5001362;28;20034;-62
2021/06/18 02:59:29;;;;;;;14.40;9.07;;;21.90;99.90;;;;;;5008518;28;20096;-59
2021/06/18 03:02:00;;;;;;;10.85;7.90;;;21.90;99.90;;;;;;5005772;28;20065;-60
2021/06/18 03:04:29;;;;;;;20.73;8.45;;;21.80;99.90;;;;;;5002074;28;20473;-62
2021/06/18 03:07:00;;;;;;;13.52;8.68;;;21.70;99.90;;;;;;5002580;28;20484;-62
2021/06/18 03:09:36;;;;;;;14.40;8.13;;;21.70;99.90;;;;;;5010281;28;20056;-61
2021/06/18 03:12:03;;;;;;;14.85;9.63;;;21.60;99.90;;;;;;5000366;28;20076;-62
2021/06/18 03:14:31;;;;;;;18.38;9.20;;;21.60;99.90;;;;;;5009420;28;20104;-62
2021/06/18 03:17:01;;;;;;;14.95;9.68;;;21.60;99.90;;;;;;5000835;28;20447;-60
2021/06/18 03:19:32;;;;;;;14.07;9.18;;;21.50;99.90;;;;;;5002337;28;20125;-62
2021/06/18 03:22:00;;;;;;;17.73;9.88;;;21.60;99.90;;;;;;4998402;28;20026;-61
2021/06/18 03:24:29;;;;;;;16.17;9.23;;;21.50;99.90;;;;;;5001760;28;20026;-62
2021/06/18 03:26:55;;;;;;;18.88;9.90;;;21.60;99.90;;;;;;5006599;28;20351;-62
2021/06/18 03:29:22;;;;;;;22.10;10.65;;;21.60;99.90;;;;;;5002926;28;20496;-61
2021/06/18 03:31:49;;;;;;;22.17;10.45;;;21.60;99.90;;;;;;5004820;28;20113;-62
2021/06/18 03:34:15;;;;;;;12.48;9.10;;;21.60;99.90;;;;;;5005607;28;20033;-61
2021/06/18 03:36:43;;;;;;;16.42;10.50;;;21.60;99.90;;;;;;5008457;28;20022;-57
2021/06/18 03:39:09;;;;;;;19.35;10.90;;;21.60;99.90;;;;;;5008019;28;20080;-60
2021/06/18 03:41:35;;;;;;;15.48;8.60;;;21.60;99.90;;;;;;5011174;28;20109;-61
2021/06/18 03:44:01;;;;;;;18.83;9.75;;;21.60;99.90;;;;;;5006363;28;20440;-61
2021/06/18 03:46:28;;;;;;;18.63;10.60;;;21.60;99.90;;;;;;5005292;28;20061;-61
2021/06/18 03:48:57;;;;;;;15.27;9.48;;;21.60;99.90;;;;;;4996443;28;20018;-59
2021/06/18 03:51:22;;;;;;;18.73;9.85;;;21.60;99.90;;;;;;5006177;28;20535;-60
2021/06/18 03:53:48;;;;;;;17.02;10.93;;;21.70;99.90;;;;;;5008864;28;20029;-59
2021/06/18 03:56:15;;;;;;;24.20;10.73;;;21.70;99.90;;;;;;5006547;28;20369;-62
2021/06/18 03:58:41;;;;;;;26.58;10.95;;;21.80;99.90;;;;;;5003069;28;20399;-61
2021/06/18 04:01:13;;;;;;;23.52;12.25;;;21.80;99.90;;;;;;5005764;28;20034;-54
2021/06/18 04:03:47;;;;;;;17.92;9.27;;;21.90;99.90;;;;;;5003037;28;20029;-56
2021/06/18 04:06:13;;;;;;;17.58;9.85;;;22.00;99.90;;;;;;5004030;28;20388;-57
2021/06/18 04:08:38;;;;;;;18.15;9.35;;;21.90;99.90;;;;;;5000922;28;20049;-59
2021/06/18 04:11:09;;;;;;;21.35;10.50;;;22.00;99.90;;;;;;5000058;28;20124;-55
2021/06/18 04:13:38;;;;;;;16.38;9.45;;;22.00;99.90;;;;;;5009302;28;20026;-59
2021/06/18 04:16:07;;;;;;;15.75;9.30;;;22.00;99.90;;;;;;5002087;28;20134;-58
2021/06/18 04:18:36;;;;;;;14.35;8.88;;;22.00;99.90;;;;;;5006029;28;20037;-59
2021/06/18 04:21:10;;;;;;;19.25;9.70;;;22.00;99.90;;;;;;4997727;28;20031;-58
2021/06/18 04:23:35;;;;;;;15.95;9.25;;;21.90;99.90;;;;;;4997205;28;20602;-58
2021/06/18 04:26:01;;;;;;;15.50;8.93;;;22.00;99.90;;;;;;5004625;28;20113;-58
2021/06/18 04:28:28;;;;;;;14.07;9.68;;;22.00;99.90;;;;;;5001761;28;20373;-56
2021/06/18 04:30:53;;;;;;;18.52;9.27;;;22.00;99.90;;;;;;5008024;28;20049;-58
2021/06/18 04:33:19;;;;;;;14.57;9.75;;;22.10;99.90;;;;;;5007767;28;20030;-56
2021/06/18 04:35:45;;;;;;;22.98;10.90;;;22.10;99.90;;;;;;5010368;28;20041;-55
2021/06/18 04:38:11;;;;;;;15.23;9.15;;;22.10;99.90;;;;;;5006300;28;20036;-58
2021/06/18 04:40:37;;;;;;;17.40;9.40;;;22.20;99.90;;;;;;5006846;28;20479;-57
2021/06/18 04:43:03;;;;;;;17.70;10.45;;;22.20;99.90;;;;;;5009540;28;20214;-59
2021/06/18 04:45:28;;;;;;;20.80;10.00;;;22.20;99.90;;;;;;5008720;28;20101;-60
2021/06/18 04:47:55;;;;;;;15.30;9.45;;;22.20;99.90;;;;;;5005222;28;20065;-54
2021/06/18 04:50:21;;;;;;;15.45;9.77;;;22.30;99.90;;;;;;5004637;28;20041;-57
2021/06/18 04:52:47;;;;;;;20.63;9.25;;;22.40;99.90;;;;;;5009862;28;20041;-57
2021/06/18 04:55:17;;;;;;;20.52;11.40;;;22.40;99.90;;;;;;5006998;28;20034;-59
2021/06/18 04:57:44;;;;;;;22.25;10.25;;;22.40;99.90;;;;;;4990082;28;20046;-61
2021/06/18 05:00:10;;;;;;;17.45;9.40;;;22.50;99.90;;;;;;5010250;28;20050;-60
2021/06/18 05:02:35;;;;;;;18.05;9.93;;;22.50;99.90;;;;;;5003657;28;20066;-60
2021/06/18 05:05:01;;;;;;;23.77;10.43;;;22.50;99.90;;;;;;5010120;28;20053;-58
2021/06/18 05:07:27;;;;;;;17.85;10.63;;;22.60;99.90;;;;;;5000023;28;20081;-58
2021/06/18 05:09:52;;;;;;;22.63;10.25;;;22.60;99.90;;;;;;5001757;28;20054;-59
2021/06/18 05:12:18;;;;;;;14.65;10.00;;;22.70;99.90;;;;;;5009211;28;20057;-58
2021/06/18 05:14:44;;;;;;;15.70;10.32;;;22.80;99.90;;;;;;5009706;28;20129;-58
2021/06/18 05:17:09;;;;;;;19.70;9.18;;;22.80;99.90;;;;;;5011809;28;20026;-60
2021/06/18 05:19:35;;;;;;;21.15;11.68;;;22.80;99.90;;;;;;5007514;28;20048;-58
2021/06/18 05:22:01;;;;;;;19.13;11.60;;;22.80;99.90;;;;;;5005778;28;20061;-60
2021/06/18 05:24:26;;;;;;;16.92;10.68;;;22.90;99.90;;;;;;5003959;28;20097;-60
2021/06/18 05:26:52;;;;;;;19.23;11.65;;;23.00;99.90;;;;;;5008449;28;20045;-58
2021/06/18 05:29:17;;;;;;;26.17;12.77;;;23.00;99.90;;;;;;5011329;28;20041;-56
2021/06/18 05:31:43;;;;;;;29.85;13.18;;;23.10;99.90;;;;;;5012627;28;20029;-56
2021/06/18 05:34:08;;;;;;;24.38;13.63;;;23.10;99.90;;;;;;5006055;28;20022;-57
2021/06/18 05:36:34;;;;;;;28.52;14.88;;;23.20;99.90;;;;;;5010024;28;20117;-56
2021/06/18 05:38:59;;;;;;;24.67;13.40;;;23.20;99.90;;;;;;5001798;28;20026;-59
2021/06/18 05:41:26;;;;;;;28.88;16.83;;;23.20;99.90;;;;;;5010767;28;20037;-60
2021/06/18 05:43:52;;;;;;;31.88;16.10;;;23.30;99.90;;;;;;5013093;28;20484;-59
2021/06/18 05:46:18;;;;;;;22.25;15.07;;;23.30;99.90;;;;;;5011344;28;20029;-59
2021/06/18 05:48:43;;;;;;;34.75;19.52;;;23.40;99.90;;;;;;5006739;28;20500;-55
2021/06/18 05:51:09;;;;;;;26.70;15.13;;;23.40;99.90;;;;;;5013500;28;20630;-59
2021/06/18 05:53:34;;;;;;;28.30;17.08;;;23.50;99.90;;;;;;5011869;28;20084;-55
2021/06/18 05:56:00;;;;;;;29.77;17.27;;;23.60;99.90;;;;;;5006146;28;20033;-58
2021/06/18 05:58:25;;;;;;;25.52;16.17;;;23.70;99.90;;;;;;5010179;28;20492;-59
2021/06/18 06:00:51;;;;;;;29.38;15.60;;;23.70;99.90;;;;;;5012426;28;20508;-58
2021/06/18 06:03:17;;;;;;;35.92;17.30;;;23.80;99.90;;;;;;5010421;28;20040;-57
2021/06/18 06:05:42;;;;;;;36.53;18.52;;;23.80;99.90;;;;;;5012636;28;20049;-57
2021/06/18 06:08:10;;;;;;;39.60;19.17;;;23.80;99.90;;;;;;5004645;28;20034;-59
2021/06/18 06:10:35;;;;;;;33.72;17.20;;;23.90;99.90;;;;;;5010930;28;20084;-58
2021/06/18 06:13:01;;;;;;;30.77;16.10;;;24.00;99.90;;;;;;5012834;28;20034;-59
2021/06/18 06:15:26;;;;;;;37.17;14.88;;;24.10;99.90;;;;;;5012684;28;20033;-59
2021/06/18 06:17:52;;;;;;;21.88;14.68;;;24.10;99.90;;;;;;5007784;28;20056;-58
2021/06/18 06:20:17;;;;;;;28.00;13.05;;;24.10;99.90;;;;;;5012656;28;20387;-58
2021/06/18 06:22:43;;;;;;;20.77;12.77;;;24.20;99.90;;;;;;5012755;28;20022;-60
2021/06/18 06:25:10;;;;;;;28.17;13.60;;;24.30;99.90;;;;;;5012659;28;20034;-59
2021/06/18 06:27:35;;;;;;;26.30;13.52;;;24.30;99.90;;;;;;5011647;28;20176;-61
2021/06/18 06:30:01;;;;;;;25.45;14.85;;;24.40;99.90;;;;;;5012846;28;20105;-56
2021/06/18 06:32:27;;;;;;;29.70;12.88;;;24.40;99.90;;;;;;5008356;28;20026;-60
2021/06/18 06:34:52;;;;;;;35.72;16.10;;;24.50;99.90;;;;;;5006463;28;20033;-62
2021/06/18 06:37:18;;;;;;;18.08;11.60;;;24.60;99.90;;;;;;5012834;28;20026;-61
2021/06/18 06:39:43;;;;;;;22.98;12.80;;;24.60;99.90;;;;;;5010874;28;20105;-58
2021/06/18 06:42:09;;;;;;;25.70;11.82;;;24.70;99.90;;;;;;5012817;28;20037;-59
2021/06/18 06:44:34;;;;;;;29.98;12.82;;;24.80;99.90;;;;;;5012768;28;20085;-61
2021/06/18 06:47:00;;;;;;;26.08;10.95;;;24.90;99.90;;;;;;5012500;28;20033;-61
2021/06/18 06:49:25;;;;;;;25.52;11.05;;;25.00;99.90;;;;;;5005970;28;20033;-60
2021/06/18 06:51:52;;;;;;;25.33;12.52;;;25.10;99.90;;;;;;5012066;28;20030;-60
2021/06/18 06:54:18;;;;;;;29.65;11.77;;;25.30;99.90;;;;;;5010279;28;20026;-58
2021/06/18 06:56:43;;;;;;;21.70;12.23;;;25.50;99.90;;;;;;5012523;28;20418;-60
2021/06/18 06:59:09;;;;;;;16.88;10.55;;;25.60;99.90;;;;;;5005766;28;20085;-60
2021/06/18 07:01:34;;;;;;;17.25;12.20;;;25.70;99.90;;;;;;5008010;28;20034;-58
2021/06/18 07:04:01;;;;;;;28.42;10.95;;;25.90;99.90;;;;;;5010441;28;20030;-59
2021/06/18 07:06:27;;;;;;;21.23;9.80;;;26.00;99.90;;;;;;5012430;28;20038;-57
2021/06/18 07:08:52;;;;;;;22.13;11.68;;;26.00;99.90;;;;;;5000780;28;20487;-59
2021/06/18 07:11:18;;;;;;;22.40;10.32;;;26.10;99.90;;;;;;5012252;28;20033;-59
2021/06/18 07:13:44;;;;;;;19.05;10.00;;;26.10;99.90;;;;;;4994553;28;20108;-61
2021/06/18 07:16:11;;;;;;;20.38;9.10;;;26.20;99.90;;;;;;5011850;28;20128;-57
2021/06/18 07:18:36;;;;;;;15.57;9.00;;;26.30;99.90;;;;;;5009199;28;20026;-56
2021/06/18 07:21:03;;;;;;;20.02;9.23;;;26.30;99.90;;;;;;5012257;28;20037;-58
2021/06/18 07:23:28;;;;;;;17.65;9.98;;;26.40;99.90;;;;;;5011281;28;20072;-58
2021/06/18 07:25:54;;;;;;;18.98;9.50;;;26.50;99.90;;;;;;5011877;28;20021;-58
2021/06/18 07:28:19;;;;;;;24.40;10.50;;;26.60;99.90;;;;;;5009898;28;20026;-59
2021/06/18 07:30:45;;;;;;;23.75;10.50;;;26.60;99.90;;;;;;5011896;28;20117;-58
2021/06/18 07:33:11;;;;;;;23.70;10.48;;;26.60;99.90;;;;;;5011091;28;20446;-60
2021/06/18 07:35:36;;;;;;;19.40;9.80;;;26.50;99.90;;;;;;5007659;28;20030;-59
2021/06/18 07:38:03;;;;;;;14.00;8.88;;;26.50;99.90;;;;;;5009941;28;20029;-59
2021/06/18 07:40:30;;;;;;;15.23;9.43;;;26.60;99.90;;;;;;5011711;28;20555;-60
2021/06/18 07:42:55;;;;;;;17.92;10.65;;;26.60;99.90;;;;;;5011648;28;20081;-60
2021/06/18 07:45:21;;;;;;;19.55;10.82;;;26.60;99.90;;;;;;5011435;28;20022;-59
2021/06/18 07:47:46;;;;;;;22.50;10.68;;;26.40;99.90;;;;;;5010305;28;20041;-60
2021/06/18 07:50:14;;;;;;;16.38;10.63;;;26.40;99.90;;;;;;5010142;28;20022;-59
2021/06/18 07:52:40;;;;;;;19.05;10.63;;;26.30;99.90;;;;;;5029946;23;20040;-63
2021/06/18 07:55:09;;;;;;;18.13;10.35;;;26.20;99.90;;;;;;5035780;28;20037;-60
2021/06/18 07:57:36;;;;;;;22.67;9.82;;;26.20;99.90;;;;;;5048165;28;20025;-58
2021/06/18 08:00:07;;;;;;;17.75;9.95;;;26.10;99.90;;;;;;5049704;28;20502;-59
2021/06/18 08:02:32;;;;;;;20.55;10.52;;;26.10;99.90;;;;;;5050457;28;20037;-62
2021/06/18 08:04:58;;;;;;;20.10;10.95;;;26.10;99.90;;;;;;5049698;28;20557;-59
2021/06/18 08:07:23;;;;;;;22.10;10.52;;;26.10;99.90;;;;;;5049762;28;20024;-64
2021/06/18 08:09:50;;;;;;;22.92;11.15;;;26.10;99.90;;;;;;5049809;28;20029;-60
2021/06/18 08:12:15;;;;;;;27.33;11.27;;;26.10;99.90;;;;;;5049980;28;20151;-60
2021/06/18 08:14:41;;;;;;;18.00;9.60;;;26.20;99.90;;;;;;5050172;28;20112;-60
2021/06/18 08:17:06;;;;;;;23.92;10.93;;;26.30;99.90;;;;;;5049308;28;20025;-62
2021/06/18 08:19:32;;;;;;;18.10;10.55;;;26.20;99.90;;;;;;5049316;28;20036;-60
2021/06/18 08:21:58;;;;;;;23.00;11.05;;;26.10;99.90;;;;;;5049925;28;20363;-59
2021/06/18 08:24:23;;;;;;;22.02;11.07;;;26.10;99.90;;;;;;5049734;28;20025;-62
2021/06/18 08:26:50;;;;;;;32.92;12.52;;;26.00;99.90;;;;;;5049980;28;20030;-62
2021/06/18 08:29:16;;;;;;;23.75;10.55;;;26.00;99.90;;;;;;5049729;28;20490;-62
2021/06/18 08:31:42;;;;;;;19.08;10.18;;;26.10;99.90;;;;;;5049944;28;20021;-61
2021/06/18 08:34:09;;;;;;;23.42;10.88;;;26.30;99.90;;;;;;5042799;28;20112;-62
2021/06/18 08:36:35;;;;;;;19.35;10.10;;;26.40;99.90;;;;;;5049339;28;20372;-60
2021/06/18 08:39:01;;;;;;;22.95;9.95;;;26.40;99.90;;;;;;5049728;28;20033;-59
2021/06/18 08:41:27;;;;;;;16.48;10.35;;;26.70;99.90;;;;;;5049878;28;20436;-60
2021/06/18 08:43:54;;;;;;;19.80;9.80;;;26.70;99.90;;;;;;5049653;28;20025;-57
2021/06/18 08:46:20;;;;;;;17.52;9.63;;;26.80;99.90;;;;;;5049601;28;20021;-59
2021/06/18 08:48:48;;;;;;;20.67;10.80;;;26.90;99.90;;;;;;5049025;28;20040;-60
2021/06/18 08:51:14;;;;;;;22.67;10.00;;;27.00;99.90;;;;;;5049926;28;20041;-60
2021/06/18 08:53:42;;;;;;;16.27;10.13;;;27.00;99.90;;;;;;5049229;28;20503;-57
2021/06/18 08:56:08;;;;;;;21.55;11.05;;;27.10;99.90;;;;;;5049561;28;20039;-60
2021/06/18 08:58:34;;;;;;;23.35;9.73;;;27.00;99.90;;;;;;5047868;28;20025;-60
2021/06/18 09:01:00;;;;;;;16.38;9.55;;;27.10;99.90;;;;;;5050049;28;20029;-59
2021/06/18 09:03:42;;;;;;;21.40;9.68;;;27.30;99.90;;;;;;5048681;28;20107;-60
2021/06/18 09:06:27;;;;;;;15.68;9.88;;;27.20;99.90;;;;;;5048754;28;20025;-62
2021/06/18 09:09:15;;;;;;;16.85;7.90;;;27.20;99.90;;;;;;5049644;28;20028;-59
2021/06/18 09:11:59;;;;;;;18.55;9.05;;;27.40;99.90;;;;;;5045863;28;20116;-59
2021/06/18 09:14:32;;;;;;;15.98;9.85;;;27.70;99.90;;;;;;5049464;28;20021;-59
2021/06/18 09:17:10;;;;;;;20.73;9.60;;;27.80;99.90;;;;;;5048990;28;20483;-60
2021/06/18 09:19:43;;;;;;;24.42;9.63;;;28.00;99.90;;;;;;5048963;28;20056;-60
2021/06/18 09:22:12;;;;;;;22.50;10.13;;;28.10;99.90;;;;;;5049420;28;20020;-59
2021/06/18 09:24:40;;;;;;;16.77;9.80;;;28.20;99.90;;;;;;5048735;28;20032;-59
2021/06/18 09:27:06;;;;;;;20.38;9.23;;;28.00;99.90;;;;;;5049256;28;20029;-59
2021/06/18 09:29:32;;;;;;;26.58;9.57;;;28.00;99.90;;;;;;5052569;28;20057;-59
2021/06/18 09:32:07;;;;;;;18.75;9.02;;;28.20;99.90;;;;;;5053218;28;20067;-65
2021/06/18 09:37:36;;;;;;;22.58;9.88;;;28.50;99.90;;;;;;5054546;28;20036;-58
2021/06/18 09:40:08;;;;;;;27.02;9.77;;;28.70;99.90;;;;;;5054167;28;20025;-59
2021/06/18 09:43:08;;;;;;;18.40;8.95;;;28.70;99.90;;;;;;5053944;28;20090;-59
2021/06/18 09:45:35;;;;;;;20.20;8.98;;;28.90;99.90;;;;;;5053199;28;20021;-58
2021/06/18 09:48:21;;;;;;;11.77;8.32;;;29.20;99.90;;;;;;5054078;28;20052;-57
2021/06/18 09:50:59;;;;;;;18.67;9.07;;;29.40;99.90;;;;;;5052574;28;20454;-61
2021/06/18 09:53:27;;;;;;;22.77;9.63;;;29.90;99.90;;;;;;5053353;28;20029;-58
2021/06/18 09:56:05;;;;;;;21.60;8.95;;;30.00;99.90;;;;;;5053208;28;20024;-57
2021/06/18 09:58:37;;;;;;;21.08;8.15;;;30.10;99.90;;;;;;5052216;28;20032;-57
2021/06/18 10:01:38;;;;;;;24.42;8.65;;;29.90;99.90;;;;;;5053200;28;20032;-58
2021/06/18 10:04:12;;;;;;;18.83;7.95;;;29.60;99.90;;;;;;4991410;28;20041;-57
2021/06/18 10:06:38;;;;;;;;;;;29.80;99.90;;;;;;5044373;28;20067;-57
2021/06/18 10:09:05;;;;;;;16.85;8.63;;;29.90;99.90;;;;;;5053337;28;20400;-56
2021/06/18 10:11:32;;;;;;;22.02;9.02;;;29.90;99.90;;;;;;5053851;28;20482;-58
2021/06/18 10:13:58;;;;;;;21.13;9.00;;;30.00;99.90;;;;;;5053120;28;20029;-58
2021/06/18 10:16:26;;;;;;;21.17;9.15;;;30.20;99.90;;;;;;5053010;28;20028;-60
2021/06/18 10:18:52;;;;;;;14.43;8.65;;;30.40;99.90;;;;;;5053393;28;20393;-58
2021/06/18 10:21:19;;;;;;;12.75;8.25;;;30.70;99.90;;;;;;5053389;28;20100;-59
2021/06/18 10:23:49;;;;;;;14.88;7.45;;;30.80;99.90;;;;;;5052900;28;20045;-62
2021/06/18 10:26:15;;;;;;;17.67;7.00;;;30.70;99.90;;;;;;5052973;28;20074;-59
2021/06/18 10:28:52;;;;;;;17.30;7.70;;;30.60;99.90;;;;;;5053106;28;20032;-57
2021/06/18 10:31:26;;;;;;;16.05;7.13;;;30.60;99.90;;;;;;5053369;28;20109;-60
2021/06/18 10:34:16;;;;;;;14.05;7.28;;;30.40;99.90;;;;;;5052612;28;20498;-62
2021/06/18 10:36:43;;;;;;;13.52;6.97;;;30.50;99.90;;;;;;5052724;28;20401;-59
2021/06/18 10:39:19;;;;;;;15.73;7.35;;;30.60;99.90;;;;;;5052237;28;20033;-57
2021/06/18 10:41:52;;;;;;;18.23;7.13;;;30.50;99.90;;;;;;5052736;28;20057;-58
2021/06/18 10:44:36;;;;;;;15.77;7.25;;;30.60;99.90;;;;;;5052608;28;20029;-60
2021/06/18 10:47:06;;;;;;;21.45;6.88;;;30.70;99.90;;;;;;5045303;28;20453;-62
2021/06/18 10:49:39;;;;;;;11.63;6.13;;;30.80;99.90;;;;;;5045094;28;20041;-62
2021/06/18 10:52:26;;;;;;;18.83;5.57;;;31.10;99.90;;;;;;5040393;28;20100;-59
2021/06/18 10:54:53;;;;;;;13.52;5.70;;;31.30;99.90;;;;;;5046438;28;20037;-60
2021/06/18 10:57:24;;;;;;;10.13;6.00;;;31.60;99.90;;;;;;5049629;28;20033;-58
2021/06/18 10:59:52;;;;;;;14.60;5.78;;;31.70;99.90;;;;;;5044093;28;20026;-60
2021/06/18 11:02:23;;;;;;;15.48;6.18;;;32.10;99.90;;;;;;5060888;28;20025;-62
2021/06/18 11:04:54;;;;;;;17.95;5.78;;;32.40;99.90;;;;;;5048782;28;20108;-62
2021/06/18 11:07:27;;;;;;;13.38;6.15;;;32.70;99.90;;;;;;5047990;28;20026;-61
2021/06/18 11:10:01;;;;;;;13.45;5.07;;;32.70;99.90;;;;;;5045887;28;20399;-63
2021/06/18 11:12:27;;;;;;;21.42;5.18;;;32.90;99.90;;;;;;5051711;28;20025;-61
2021/06/18 11:14:58;;;;;;;17.00;4.38;;;33.10;98.60;;;;;;5050473;28;20032;-61
2021/06/18 11:17:45;;;;;;;11.95;4.63;;;33.20;98.40;;;;;;5049596;28;20040;-59
2021/06/18 11:20:13;;;;;;;13.52;4.50;;;33.60;96.50;;;;;;5048386;28;20106;-57
2021/06/18 11:22:52;;;;;;;9.38;4.00;;;33.90;94.40;;;;;;5047923;28;20068;-58
2021/06/18 11:25:36;;;;;;;13.02;3.78;;;33.60;94.40;;;;;;5050715;28;20033;-63
2021/06/18 11:28:20;;;;;;;12.45;4.28;;;33.30;94.80;;;;;;5052212;28;20021;-60
2021/06/18 11:31:16;;;;;;;15.52;4.63;;;33.20;97.50;;;;;;5047454;28;20028;-59
2021/06/18 11:33:45;;;;;;;16.02;3.88;;;33.20;95.10;;;;;;5049329;28;20460;-61
2021/06/18 11:36:17;;;;;;;10.65;4.00;;;33.30;93.80;;;;;;5051421;28;20029;-59
2021/06/18 11:38:48;;;;;;;13.73;4.47;;;33.60;92.80;;;;;;5051402;28;20025;-60
2021/06/18 11:41:18;;;;;;;14.48;4.57;;;33.30;92.50;;;;;;5045553;28;20029;-60
2021/06/18 11:43:44;;;;;;;13.90;4.88;;;33.10;94.30;;;;;;5041745;28;20025;-61
2021/06/18 11:46:10;;;;;;;14.65;4.35;;;33.30;93.90;;;;;;5048669;28;20383;-62
2021/06/18 11:48:36;;;;;;;14.25;4.20;;;33.50;95.00;;;;;;5049988;28;20028;-61
2021/06/18 11:51:03;;;;;;;11.93;4.30;;;33.80;92.90;;;;;;5046796;28;20033;-62
2021/06/18 11:53:39;;;;;;;9.32;3.60;;;33.60;92.40;;;;;;5045657;28;20032;-61
2021/06/18 11:56:06;;;;;;;17.95;3.67;;;33.70;92.60;;;;;;5041456;28;20021;-61
2021/06/18 11:58:40;;;;;;;11.95;3.70;;;33.70;93.40;;;;;;5039369;28;20029;-60
2021/06/18 12:01:13;;;;;;;15.52;3.70;;;34.00;89.20;;;;;;5040741;28;20025;-59
2021/06/18 12:03:39;;;;;;;13.15;3.75;;;34.40;89.80;;;;;;5040807;28;20037;-60
2021/06/18 12:06:22;;;;;;;10.75;4.10;;;34.80;83.30;;;;;;5042337;28;20031;-59
2021/06/18 12:08:57;;;;;;;15.45;4.05;;;34.80;88.30;;;;;;5042568;28;20025;-56
2021/06/18 12:11:23;;;;;;;20.38;4.57;;;34.90;89.00;;;;;;5042261;28;20021;-58
2021/06/18 12:13:54;;;;;;;10.15;3.83;;;34.80;88.10;;;;;;5044688;28;20032;-56
2021/06/18 12:16:19;;;;;;;8.82;3.60;;;34.70;84.40;;;;;;5047402;28;20371;-59
2021/06/18 12:18:46;;;;;;;9.18;4.40;;;35.00;86.00;;;;;;5045987;28;20033;-58
2021/06/18 12:21:12;;;;;;;13.98;4.18;;;35.30;80.50;;;;;;5047621;28;20033;-57
2021/06/18 12:23:39;;;;;;;15.10;4.07;;;35.30;82.80;;;;;;5050556;28;20114;-57
2021/06/18 12:26:05;;;;;;;15.38;4.53;;;35.50;84.20;;;;;;5042362;28;20013;-59
2021/06/18 12:28:31;;;;;;;12.45;4.43;;;35.70;82.00;;;;;;5048648;28;20048;-57
2021/06/18 12:30:58;;;;;;;9.82;4.43;;;35.90;81.80;;;;;;5043928;28;20032;-56
2021/06/18 12:33:24;;;;;;;18.95;4.50;;;35.80;80.30;;;;;;5050571;28;20057;-58
2021/06/18 12:35:50;;;;;;;17.75;4.85;;;35.60;83.60;;;;;;5047381;28;20098;-62
2021/06/18 12:38:16;;;;;;;12.38;4.05;;;35.40;79.00;;;;;;5047518;28;20094;-62
2021/06/18 12:40:47;;;;;;;15.90;4.57;;;35.50;77.40;;;;;;5050482;28;20113;-59
2021/06/18 12:43:15;;;;;;;9.32;4.35;;;35.40;81.40;;;;;;5049060;28;20103;-59
2021/06/18 12:45:52;;;;;;;10.98;4.28;;;35.70;77.30;;;;;;5050082;28;20052;-59